createdAt,value
2022-11-20T00:00:55.326Z,99995.97
2022-11-20T00:03:23.256Z,99994.28
2022-11-20T00:05:51.185Z,99990.88
2022-11-20T00:08:19.081Z,99987.50
2022-11-20T00:10:46.873Z,99989.19
2022-11-20T00:13:14.537Z,99985.78
2022-11-20T00:15:42.154Z,99988.34
2022-11-20T00:18:11.544Z,99988.16
2022-11-20T00:20:39.642Z,99995.94
2022-11-20T00:23:07.884Z,100002.69
2022-11-20T00:25:36.425Z,100001.84
2022-11-20T00:28:04.290Z,99998.44
2022-11-20T00:30:32.061Z,99994.22
2022-11-20T00:32:59.858Z,99988.63
2022-11-20T00:35:29.038Z,99986.38
2022-11-20T00:37:56.644Z,99991.38
2022-11-20T00:40:24.426Z,99993.22
2022-11-20T00:42:52.418Z,99993.28
2022-11-20T00:45:20.106Z,99993.94
2022-11-20T00:47:48.045Z,99989.78
2022-11-20T00:50:15.781Z,99993.31
2022-11-20T00:52:44.910Z,99992.41
2022-11-20T00:55:12.675Z,99990.84
2022-11-20T00:57:40.390Z,99990.78
2022-11-20T01:00:09.168Z,99989.94
2022-11-20T01:02:36.784Z,100000.19
2022-11-20T01:05:04.690Z,99975.25
2022-11-20T01:07:32.351Z,99974.31
2022-11-20T01:10:01.368Z,99978.50
2022-11-20T01:12:29.028Z,99971.66
2022-11-20T01:14:56.811Z,99971.03
2022-11-20T01:17:24.442Z,99971.16
2022-11-20T01:19:52.324Z,99973.72
2022-11-20T01:22:20.399Z,99978.00
2022-11-20T01:24:48.083Z,99978.00
2022-11-20T01:27:17.145Z,99983.16
2022-11-20T01:29:44.857Z,99965.09
2022-11-20T01:32:12.502Z,99968.47
2022-11-20T01:34:40.324Z,99971.00
2022-11-20T01:37:07.982Z,99969.25
2022-11-20T01:39:35.810Z,99963.41
2022-11-20T01:42:20.954Z,99964.31
2022-11-20T01:44:56.420Z,99966.88
2022-11-20T01:47:31.254Z,99967.75
2022-11-20T01:50:03.775Z,99966.78
2022-11-20T01:52:36.793Z,99965.16
2022-11-20T01:55:09.535Z,99960.91
2022-11-20T01:57:38.036Z,99958.31
2022-11-20T02:00:09.699Z,99954.91
2022-11-20T02:02:48.429Z,99949.03
2022-11-20T02:05:22.099Z,99942.16
2022-11-20T02:07:50.523Z,99938.78
2022-11-20T02:10:18.734Z,99939.56
2022-11-20T02:13:04.152Z,99939.56
2022-11-20T02:15:36.212Z,99936.06
2022-11-20T02:18:04.130Z,99936.16
2022-11-20T02:20:31.904Z,99937.00
2022-11-20T02:23:04.984Z,99937.72
2022-11-20T02:25:37.040Z,99931.78
2022-11-20T02:28:05.607Z,99931.78
2022-11-20T02:30:33.638Z,99920.66
2022-11-20T02:33:01.371Z,99925.84
2022-11-20T02:35:43.535Z,99919.09
2022-11-20T02:38:11.945Z,99914.03
2022-11-20T02:40:41.291Z,99911.47
2022-11-20T02:43:10.521Z,99914.00
2022-11-20T02:45:38.551Z,99904.44
2022-11-20T02:48:08.133Z,99912.09
2022-11-20T02:50:38.138Z,99905.31
2022-11-20T02:53:06.042Z,99901.91
2022-11-20T02:55:33.997Z,99903.63
2022-11-20T02:58:03.057Z,99905.25
2022-11-20T03:00:31.661Z,99909.53
2022-11-20T03:02:59.454Z,99900.06
2022-11-20T03:05:27.168Z,99895.84
2022-11-20T03:07:54.871Z,99887.28
2022-11-20T03:10:22.689Z,99895.84
2022-11-20T03:12:55.202Z,99905.16
2022-11-20T03:15:24.291Z,99899.19
2022-11-20T03:17:55.549Z,99903.41
2022-11-20T03:20:23.628Z,99901.75
2022-11-20T03:22:51.384Z,99892.34
2022-11-20T03:25:19.093Z,99898.38
2022-11-20T03:27:46.758Z,99897.38
2022-11-20T03:30:15.412Z,99893.94
2022-11-20T03:32:45.269Z,99890.53
2022-11-20T03:35:13.052Z,99888.63
2022-11-20T03:37:40.742Z,99895.75
2022-11-20T03:40:09.262Z,99895.81
2022-11-20T03:42:48.840Z,99896.69
2022-11-20T03:45:17.865Z,99896.63
2022-11-20T03:47:48.218Z,99891.41
2022-11-20T03:50:16.111Z,99900.91
2022-11-20T03:52:44.116Z,99898.41
2022-11-20T03:55:11.863Z,99894.91
2022-11-20T03:57:39.549Z,99899.31
2022-11-20T04:00:08.578Z,99896.63
2022-11-20T04:02:36.306Z,99881.34
2022-11-20T04:05:05.812Z,99872.72
2022-11-20T04:07:35.598Z,99865.00
2022-11-20T04:10:03.699Z,99864.75
2022-11-20T04:12:34.164Z,99863.22
2022-11-20T04:15:01.920Z,99863.25
2022-11-20T04:17:29.549Z,99864.94
2022-11-20T04:19:57.165Z,99868.25
2022-11-20T04:22:27.213Z,99869.03
2022-11-20T04:24:54.887Z,99864.88
2022-11-20T04:27:22.897Z,99864.09
2022-11-20T04:29:50.500Z,99861.75
2022-11-20T04:32:18.120Z,99860.78
2022-11-20T04:34:45.705Z,99863.25
2022-11-20T04:37:13.412Z,99852.16
2022-11-20T04:39:42.666Z,99853.81
2022-11-20T04:42:28.352Z,99864.84
2022-11-20T04:44:56.786Z,99863.84
2022-11-20T04:47:24.526Z,99859.75
2022-11-20T04:49:52.338Z,99856.16
2022-11-20T04:52:20.063Z,99843.28
2022-11-20T04:54:48.993Z,99840.78
2022-11-20T04:57:17.131Z,99847.59
2022-11-20T04:59:44.815Z,99851.09
2022-11-20T05:02:13.875Z,99850.28
2022-11-20T05:04:41.577Z,99850.97
2022-11-20T05:07:09.241Z,99839.88
2022-11-20T05:09:37.082Z,99845.25
2022-11-20T05:12:06.627Z,99840.03
2022-11-20T05:14:34.269Z,99834.03
2022-11-20T05:17:01.986Z,99833.16
2022-11-20T05:19:29.606Z,99835.75
2022-11-20T05:21:57.216Z,99843.41
2022-11-20T05:24:25.008Z,99845.88
2022-11-20T05:26:52.689Z,99833.97
2022-11-20T05:29:21.922Z,99837.31
2022-11-20T05:31:50.209Z,99827.09
2022-11-20T05:34:17.944Z,99833.03
2022-11-20T05:36:45.525Z,99833.94
2022-11-20T05:39:13.186Z,99838.25
2022-11-20T05:41:40.818Z,99834.03
2022-11-20T05:44:08.518Z,99823.78
2022-11-20T05:46:37.574Z,99810.06
2022-11-20T05:49:05.210Z,99821.19
2022-11-20T05:51:32.791Z,99829.66
2022-11-20T05:54:00.529Z,99835.59
2022-11-20T05:56:28.128Z,99833.78
2022-11-20T05:58:55.766Z,99824.38
2022-11-20T06:01:25.660Z,99824.34
2022-11-20T06:03:55.320Z,99823.59
2022-11-20T06:06:23.075Z,99813.31
2022-11-20T06:08:51.100Z,99817.69
2022-11-20T06:11:19.342Z,99821.03
2022-11-20T06:13:47.981Z,99821.03
2022-11-20T06:16:18.062Z,99827.00
2022-11-20T06:18:45.884Z,99827.03
2022-11-20T06:21:16.742Z,99831.22
2022-11-20T06:23:46.120Z,99817.59
2022-11-20T06:26:16.282Z,99820.84
2022-11-20T06:28:44.118Z,99823.41
2022-11-20T06:31:14.455Z,99820.97
2022-11-20T06:33:42.442Z,99818.38
2022-11-20T06:36:12.280Z,99819.31
2022-11-20T06:38:42.070Z,99821.81
2022-11-20T06:41:13.688Z,99819.31
2022-11-20T06:43:41.865Z,99816.00
2022-11-20T06:46:11.549Z,99811.59
2022-11-20T06:48:39.485Z,99821.97
2022-11-20T06:51:08.515Z,99815.06
2022-11-20T06:53:36.985Z,99810.75
2022-11-20T06:56:06.606Z,99810.66
2022-11-20T06:58:36.149Z,99817.38
2022-11-20T07:01:05.642Z,99819.06
2022-11-20T07:03:33.416Z,99815.84
2022-11-20T07:06:02.604Z,99826.19
2022-11-20T07:08:30.598Z,99823.34
2022-11-20T07:11:01.643Z,99833.63
2022-11-20T07:13:31.109Z,99830.19
2022-11-20T07:16:02.366Z,99835.25
2022-11-20T07:18:30.315Z,99836.94
2022-11-20T07:20:58.134Z,99836.13
2022-11-20T07:23:25.784Z,99837.75
2022-11-20T07:25:53.360Z,99840.41
2022-11-20T07:28:21.041Z,99836.13
2022-11-20T07:30:52.996Z,99842.88
2022-11-20T07:33:21.292Z,99848.78
2022-11-20T07:35:48.950Z,99848.72
2022-11-20T07:38:17.013Z,99847.94
2022-11-20T07:40:44.808Z,99850.41
2022-11-20T07:43:12.408Z,99853.72
2022-11-20T07:45:39.971Z,99854.44
2022-11-20T07:48:08.996Z,99855.47
2022-11-20T07:50:37.034Z,99854.53
2022-11-20T07:53:06.069Z,99859.66
2022-11-20T07:55:34.480Z,99864.81
2022-11-20T07:58:02.076Z,99876.72
2022-11-20T08:00:30.203Z,99871.69
2022-11-20T08:02:57.873Z,99875.25
2022-11-20T08:05:27.049Z,99872.59
2022-11-20T08:07:54.606Z,99878.72
2022-11-20T08:10:22.198Z,99878.53
2022-11-20T08:13:09.114Z,99875.84
2022-11-20T08:15:37.662Z,99873.31
2022-11-20T08:20:56.550Z,99880.66
2022-11-20T08:23:24.732Z,99885.13
2022-11-20T08:25:52.889Z,99877.38
2022-11-20T08:28:22.105Z,99892.06
2022-11-20T08:30:50.829Z,99884.28
2022-11-20T08:33:19.323Z,99884.34
2022-11-20T08:35:47.536Z,99885.81
2022-11-20T08:38:16.649Z,99884.75
2022-11-20T08:41:05.146Z,99902.00
2022-11-20T08:43:32.797Z,99905.53
2022-11-20T08:46:00.505Z,99907.44
2022-11-20T08:48:29.274Z,99899.78
2022-11-20T08:51:00.369Z,99906.41
2022-11-20T08:53:30.338Z,99910.50
2022-11-20T08:55:59.141Z,99911.34
2022-11-20T08:58:27.451Z,99920.78
2022-11-20T09:00:55.677Z,99917.28
2022-11-20T09:03:27.430Z,99913.22
2022-11-20T09:06:01.873Z,99914.16
2022-11-20T09:08:31.396Z,99919.34
2022-11-20T09:10:59.988Z,99913.31
2022-11-20T09:13:29.388Z,99914.84
2022-11-20T09:15:58.549Z,99915.63
2022-11-20T09:18:26.594Z,99911.53
2022-11-20T09:20:58.472Z,99912.28
2022-11-20T09:23:26.950Z,99917.19
2022-11-20T09:26:00.484Z,99915.72
2022-11-20T09:28:28.292Z,99913.91
2022-11-20T09:30:56.225Z,99916.38
2022-11-20T09:33:24.006Z,99916.31
2022-11-20T09:35:51.653Z,99922.22
2022-11-20T09:38:19.828Z,99929.94
2022-11-20T09:40:56.828Z,99933.31
2022-11-20T09:43:42.485Z,99934.22
2022-11-20T09:46:19.278Z,99931.50
2022-11-20T09:49:11.929Z,99923.66
2022-11-20T09:51:48.346Z,99925.28
2022-11-20T09:54:19.737Z,99915.00
2022-11-20T09:56:51.953Z,99919.63
2022-11-20T09:59:38.162Z,99910.75
2022-11-20T10:02:17.670Z,99914.84
2022-11-20T10:04:51.525Z,99916.66
2022-11-20T10:07:33.439Z,99918.19
2022-11-20T10:10:01.894Z,99920.16
2022-11-20T10:12:39.634Z,99911.41
2022-11-20T10:15:32.495Z,99913.47
2022-11-20T10:18:11.402Z,99911.94
2022-11-20T10:20:48.283Z,99911.69
2022-11-20T10:23:38.866Z,99898.72
2022-11-20T10:26:19.237Z,99889.75
2022-11-20T10:29:04.735Z,99894.72
2022-11-20T10:31:39.201Z,99904.81
2022-11-20T10:34:15.945Z,99900.44
2022-11-20T10:36:52.804Z,99902.03
2022-11-20T10:39:27.891Z,99889.84
2022-11-20T10:41:55.613Z,99887.19
2022-11-20T10:44:41.478Z,99891.19
2022-11-20T10:47:16.531Z,99884.19
2022-11-20T10:49:46.894Z,99895.22
2022-11-20T10:52:23.576Z,99889.25
2022-11-20T10:55:01.270Z,99887.72
2022-11-20T10:57:53.879Z,99887.41
2022-11-20T11:00:21.753Z,99894.94
2022-11-20T11:02:52.610Z,99894.84
2022-11-20T11:05:32.630Z,99899.03
2022-11-20T11:08:01.177Z,99894.75
2022-11-20T11:10:38.304Z,99899.88
2022-11-20T11:13:06.018Z,99891.25
2022-11-20T11:15:41.684Z,99883.25
2022-11-20T11:18:12.427Z,99875.28
2022-11-20T11:20:40.741Z,99873.22
2022-11-20T11:23:30.678Z,99872.34
2022-11-20T11:26:00.521Z,99868.72
2022-11-20T11:28:29.939Z,99865.41
2022-11-20T11:30:57.948Z,99865.19
2022-11-20T11:33:29.099Z,99866.03
2022-11-20T11:35:59.166Z,99868.63
2022-11-20T11:38:33.287Z,99869.38
2022-11-20T11:41:01.173Z,99859.47
2022-11-20T11:43:49.535Z,99856.38
2022-11-20T11:46:33.450Z,99860.84
2022-11-20T11:49:14.566Z,99858.38
2022-11-20T11:51:55.465Z,99862.09
2022-11-20T11:54:27.532Z,99865.31
2022-11-20T11:56:55.904Z,99856.78
2022-11-20T11:59:29.860Z,99854.22
2022-11-20T12:02:02.570Z,99843.06
2022-11-20T12:04:44.081Z,99851.00
2022-11-20T12:07:45.107Z,99845.75
2022-11-20T12:10:08.142Z,99847.69
2022-11-20T12:12:43.651Z,99845.03
2022-11-20T12:15:14.388Z,99842.53
2022-11-20T12:17:42.558Z,99834.66
2022-11-20T12:20:16.511Z,99828.41
2022-11-20T12:22:55.497Z,99820.31
2022-11-20T12:25:26.664Z,99821.09
2022-11-20T12:28:17.446Z,99817.63
2022-11-20T12:30:54.350Z,99813.91
2022-11-20T12:33:45.661Z,99806.94
2022-11-20T12:36:26.002Z,99804.22
2022-11-20T12:39:05.123Z,99801.63
2022-11-20T12:42:17.906Z,99799.03
2022-11-20T12:45:13.195Z,99798.91
2022-11-20T12:47:56.795Z,99804.06
2022-11-20T12:50:53.412Z,99809.03
2022-11-20T12:53:36.778Z,99804.69
2022-11-20T12:56:16.565Z,99804.66
2022-11-20T12:58:54.662Z,99803.66
2022-11-20T13:01:43.623Z,99790.59
2022-11-20T13:04:48.748Z,99793.13
2022-11-20T13:07:19.442Z,99788.63
2022-11-20T13:09:52.087Z,99779.03
2022-11-20T13:12:25.157Z,99771.97
2022-11-20T13:15:00.095Z,99766.31
2022-11-20T13:17:35.950Z,99765.50
2022-11-20T13:20:08.158Z,99763.66
2022-11-20T13:22:46.134Z,99749.47
2022-11-20T13:25:26.348Z,99756.94
2022-11-20T13:27:54.965Z,99743.69
2022-11-20T13:30:25.060Z,99746.22
2022-11-20T13:32:55.308Z,99745.31
2022-11-20T13:35:29.414Z,99745.81
2022-11-20T13:38:09.408Z,99739.47
2022-11-20T13:40:41.550Z,99734.91
2022-11-20T13:43:25.594Z,99724.13
2022-11-20T13:46:01.021Z,99730.97
2022-11-20T13:48:33.347Z,99726.78
2022-11-20T13:51:13.269Z,99728.53
2022-11-20T13:53:58.876Z,99720.63
2022-11-20T13:56:42.751Z,99724.44
2022-11-20T13:59:26.314Z,99722.56
2022-11-20T14:01:58.355Z,99726.91
2022-11-20T14:04:32.930Z,99718.97
2022-11-20T14:07:02.633Z,99704.94
2022-11-20T14:09:32.951Z,99711.75
2022-11-20T14:12:04.832Z,99698.75
2022-11-20T14:14:37.534Z,99700.75
2022-11-20T14:17:10.679Z,99701.63
2022-11-20T14:19:41.178Z,99703.63
2022-11-20T14:22:12.853Z,99703.81
2022-11-20T14:24:43.472Z,99703.13
2022-11-20T14:27:18.965Z,99705.91
2022-11-20T14:29:52.768Z,99695.75
2022-11-20T14:32:24.284Z,99693.16
2022-11-20T14:34:54.515Z,99690.63
2022-11-20T14:37:27.478Z,99689.91
2022-11-20T14:39:59.958Z,99692.66
2022-11-20T14:42:31.750Z,99689.19
2022-11-20T14:45:01.108Z,99696.09
2022-11-20T14:47:33.013Z,99688.50
2022-11-20T14:50:08.634Z,99689.41
2022-11-20T14:52:37.764Z,99686.91
2022-11-20T14:55:06.982Z,99674.06
2022-11-20T14:57:38.331Z,99681.91
2022-11-20T15:00:10.050Z,99678.50
2022-11-20T15:02:42.217Z,99693.28
2022-11-20T15:05:10.684Z,99684.03
2022-11-20T15:07:48.386Z,99683.50
2022-11-20T15:10:25.029Z,99684.75
2022-11-20T15:12:56.772Z,99679.88
2022-11-20T15:15:32.089Z,99681.63
2022-11-20T15:18:00.943Z,99673.81
2022-11-20T15:20:32.932Z,99671.31
2022-11-20T15:23:00.885Z,99675.72
2022-11-20T15:25:29.274Z,99666.47
2022-11-20T15:27:59.497Z,99678.56
2022-11-20T15:30:27.947Z,99668.53
2022-11-20T15:32:56.730Z,99666.81
2022-11-20T15:35:24.557Z,99665.31
2022-11-20T15:37:52.357Z,99672.28
2022-11-20T15:40:20.079Z,99669.75
2022-11-20T15:43:01.748Z,99662.06
2022-11-20T15:45:35.479Z,99659.47
2022-11-20T15:48:03.524Z,99658.50
2022-11-20T15:50:38.122Z,99656.75
2022-11-20T15:53:06.449Z,99659.19
2022-11-20T15:55:34.576Z,99657.34
2022-11-20T15:58:02.382Z,99652.09
2022-11-20T16:00:32.540Z,99653.66
2022-11-20T16:03:00.366Z,99654.44
2022-11-20T16:05:30.318Z,99650.91
2022-11-20T16:07:58.220Z,99657.59
2022-11-20T16:10:25.996Z,99653.28
2022-11-20T16:13:11.476Z,99648.88
2022-11-20T16:15:49.900Z,99654.00
2022-11-20T16:18:20.196Z,99652.31
2022-11-20T16:20:50.886Z,99649.72
2022-11-20T16:23:19.182Z,99647.13
2022-11-20T16:25:47.071Z,99645.41
2022-11-20T16:28:18.909Z,99645.28
2022-11-20T16:30:48.594Z,99634.13
2022-11-20T16:33:18.048Z,99635.88
2022-11-20T16:35:46.020Z,99624.69
2022-11-20T16:38:13.674Z,99629.06
2022-11-20T16:40:41.339Z,99624.81
2022-11-20T16:43:11.866Z,99614.56
2022-11-20T16:45:43.895Z,99613.69
2022-11-20T16:48:16.210Z,99607.50
2022-11-20T16:50:49.227Z,99614.34
2022-11-20T16:53:17.141Z,99611.91
2022-11-20T16:55:44.886Z,99612.72
2022-11-20T16:58:12.872Z,99612.72
2022-11-20T17:00:43.616Z,99604.16
2022-11-20T17:03:17.798Z,99602.38
2022-11-20T17:05:45.653Z,99598.97
2022-11-20T17:08:13.281Z,99595.72
2022-11-20T17:10:41.181Z,99591.41
2022-11-20T17:13:08.888Z,99591.50
2022-11-20T17:15:36.663Z,99587.28
2022-11-20T17:18:04.410Z,99586.31
2022-11-20T17:20:33.475Z,99582.72
2022-11-20T17:23:01.221Z,99582.84
2022-11-20T17:25:28.822Z,99578.66
2022-11-20T17:27:56.582Z,99582.13
2022-11-20T17:30:24.969Z,99577.00
2022-11-20T17:32:52.620Z,99572.66
2022-11-20T17:35:20.292Z,99570.81
2022-11-20T17:37:49.258Z,99557.91
2022-11-20T17:40:17.181Z,99551.84
2022-11-20T17:42:44.953Z,99549.41
2022-11-20T17:45:12.642Z,99554.44
2022-11-20T17:47:40.278Z,99553.41
2022-11-20T17:50:09.021Z,99550.78
2022-11-20T17:52:36.723Z,99550.84
2022-11-20T17:55:06.851Z,99549.28
2022-11-20T17:57:52.033Z,99546.88
2022-11-20T18:00:20.408Z,99556.44
2022-11-20T18:02:48.021Z,99546.03
2022-11-20T18:05:16.037Z,99539.78
2022-11-20T18:07:43.951Z,99529.75
2022-11-20T18:10:13.397Z,99530.47
2022-11-20T18:12:41.068Z,99533.84
2022-11-20T18:15:09.313Z,99534.31
2022-11-20T18:17:37.033Z,99528.63
2022-11-20T18:20:27.990Z,99524.28
2022-11-20T18:22:53.130Z,99522.59
2022-11-20T18:25:22.172Z,99515.56
2022-11-20T18:27:49.928Z,99515.53
2022-11-20T18:30:17.752Z,99520.56
2022-11-20T18:32:45.500Z,99519.53
2022-11-20T18:35:13.369Z,99516.97
2022-11-20T18:37:41.242Z,99520.53
2022-11-20T18:40:10.664Z,99523.22
2022-11-20T18:42:57.381Z,99514.38
2022-11-20T18:45:25.109Z,99512.91
2022-11-20T18:47:52.812Z,99513.78
2022-11-20T18:50:20.505Z,99504.44
2022-11-20T18:52:48.174Z,99504.22
2022-11-20T18:55:15.904Z,99497.44
2022-11-20T18:57:44.925Z,99496.78
2022-11-20T19:00:13.995Z,99491.63
2022-11-20T19:02:43.283Z,99488.13
2022-11-20T19:05:12.056Z,99483.16
2022-11-20T19:07:40.112Z,99483.38
2022-11-20T19:10:09.146Z,99485.44
2022-11-20T19:12:37.092Z,99486.28
2022-11-20T19:15:07.052Z,99488.94
2022-11-20T19:17:35.260Z,99490.84
2022-11-20T19:20:03.435Z,99492.22
2022-11-20T19:22:31.153Z,99491.25
2022-11-20T19:24:58.934Z,99489.69
2022-11-20T19:27:26.676Z,99499.13
2022-11-20T19:29:58.727Z,99496.38
2022-11-20T19:32:27.829Z,99485.25
2022-11-20T19:34:55.502Z,99481.59
2022-11-20T19:37:25.149Z,99484.00
2022-11-20T19:39:52.958Z,99486.09
2022-11-20T19:42:20.702Z,99482.84
2022-11-20T19:44:48.321Z,99485.25
2022-11-20T19:47:16.221Z,99485.59
2022-11-20T19:49:45.286Z,99479.63
2022-11-20T19:52:12.955Z,99481.28
2022-11-20T19:54:41.165Z,99481.47
2022-11-20T19:57:08.826Z,99476.66
2022-11-20T19:59:36.562Z,99472.78
2022-11-20T20:02:04.306Z,99469.66
2022-11-20T20:04:32.982Z,99467.06
2022-11-20T20:07:03.893Z,99463.75
2022-11-20T20:09:34.179Z,99464.66
2022-11-20T20:12:01.971Z,99456.25
2022-11-20T20:14:29.837Z,99465.63
2022-11-20T20:16:57.782Z,99477.00
2022-11-20T20:19:25.923Z,99483.25
2022-11-20T20:21:53.901Z,99487.56
2022-11-20T20:24:22.943Z,99485.53
2022-11-20T20:26:53.285Z,99484.03
2022-11-20T20:29:25.067Z,99474.56
2022-11-20T20:31:53.172Z,99481.84
2022-11-20T20:34:20.856Z,99480.91
2022-11-20T20:36:48.696Z,99463.56
2022-11-20T20:39:16.581Z,99461.75
2022-11-20T20:41:45.702Z,99455.88
2022-11-20T20:44:30.907Z,99468.94
2022-11-20T20:46:58.633Z,99467.56
2022-11-20T20:49:26.785Z,99459.25
2022-11-20T20:51:54.797Z,99453.47
2022-11-20T20:54:22.717Z,99460.53
2022-11-20T20:56:53.186Z,99465.06
2022-11-20T20:59:21.300Z,99464.34
2022-11-20T21:01:49.319Z,99462.00
2022-11-20T21:04:17.009Z,99470.84
2022-11-20T21:06:44.624Z,99478.66
2022-11-20T21:09:12.504Z,99475.91
2022-11-20T21:11:40.867Z,99477.53
2022-11-20T21:14:10.057Z,99474.81
2022-11-20T21:16:43.714Z,99475.66
2022-11-20T21:19:11.637Z,99471.31
2022-11-20T21:21:57.339Z,99466.88
2022-11-20T21:24:25.368Z,99455.88
2022-11-20T21:26:53.624Z,99456.03
2022-11-20T21:29:24.071Z,99449.28
2022-11-20T21:31:54.045Z,99440.63
2022-11-20T21:34:23.140Z,99451.00
2022-11-20T21:36:51.636Z,99452.75
2022-11-20T21:39:20.372Z,99445.16
2022-11-20T21:41:48.722Z,99451.78
2022-11-20T21:44:30.972Z,99435.25
2022-11-20T21:47:01.103Z,99447.34
2022-11-20T21:49:29.208Z,99439.69
2022-11-20T21:51:57.032Z,99442.09
2022-11-20T21:54:24.930Z,99438.34
2022-11-20T21:56:52.993Z,99445.16
2022-11-20T21:59:20.634Z,99445.72
2022-11-20T22:01:48.557Z,99445.16
2022-11-20T22:04:17.650Z,99446.50
2022-11-20T22:06:45.454Z,99443.81
2022-11-20T22:09:13.736Z,99447.22
2022-11-20T22:11:41.463Z,99447.09
2022-11-20T22:14:24.357Z,99449.34
2022-11-20T22:16:54.385Z,99451.69
2022-11-20T22:19:24.415Z,99444.13
2022-11-20T22:21:54.343Z,99448.63
2022-11-20T22:24:23.843Z,99448.56
2022-11-20T22:26:51.866Z,99441.41
2022-11-20T22:29:21.832Z,99437.81
2022-11-20T22:31:52.070Z,99438.78
2022-11-20T22:34:20.106Z,99453.34
2022-11-20T22:36:49.428Z,99444.75
2022-11-20T22:39:17.531Z,99455.94
2022-11-20T22:41:45.259Z,99447.97
2022-11-20T22:44:19.150Z,99453.00
2022-11-20T22:46:47.120Z,99452.78
2022-11-20T22:49:14.868Z,99461.28
2022-11-20T22:51:43.327Z,99467.25
2022-11-20T22:54:13.403Z,99460.31
2022-11-20T22:56:41.681Z,99468.84
2022-11-20T22:59:10.182Z,99461.09
2022-11-20T23:01:39.129Z,99461.09
2022-11-20T23:04:09.123Z,99458.41
2022-11-20T23:06:37.171Z,99463.63
2022-11-20T23:09:06.889Z,99458.53
2022-11-20T23:11:36.801Z,99455.06
2022-11-20T23:14:06.470Z,99455.88
2022-11-20T23:16:35.638Z,99458.41
2022-11-20T23:19:05.993Z,99467.97
2022-11-20T23:21:35.069Z,99464.44
2022-11-20T23:24:03.143Z,99466.94
2022-11-20T23:26:32.475Z,99456.66
2022-11-20T23:29:02.291Z,99458.78
2022-11-20T23:31:31.847Z,99456.13
2022-11-20T23:34:00.273Z,99462.88
2022-11-20T23:36:28.451Z,99455.25
2022-11-20T23:38:56.154Z,99468.19
2022-11-20T23:41:23.926Z,99461.19
2022-11-20T23:43:51.773Z,99453.13
2022-11-20T23:46:20.915Z,99457.53
2022-11-20T23:48:48.643Z,99453.06
2022-11-20T23:51:16.665Z,99445.38
2022-11-20T23:53:44.425Z,99447.97
2022-11-20T23:56:14.188Z,99446.88
2022-11-20T23:58:42.193Z,99442.59
